Terminal Aerodrome Forecast
Issued by NWS Houston/Galveston, TX

Home | Current Version | Previous Version | Text Only | Print | Product List | Glossary On
Versions: 1 2 3 4 5 6 7 8 9 10 11 12 13 14 15 16 17 18 19 20 21 22 23 24 25
000
FTUS44 KHGX 031121
TAFGLS
TAF
KGLS 031121Z 0312/0412 18007KT P6SM SCT040
     FM031500 14008KT P6SM SCT035
     FM031900 15012G19KT P6SM SCT050
     FM040200 14012KT P6SM FEW030 SCT250=

USA.gov is the U.S. government's official web portal to all federal, state and local government web resources and services.